Map

Track Data

SID SEASON NUMBER BASIN SUBBASIN NAME ISO_TIME NATURE LAT LON WMO_WIND WMO_PRES WMO_AGENCY TRACK_TYPE DIST2LAND LANDFALL IFLAG USA_AGENCY USA_ATCF_ID USA_LAT USA_LON USA_RECORD USA_STATUS USA_WIND USA_PRES USA_SSHS USA_R34_NE USA_R34_SE USA_R34_SW USA_R34_NW USA_R50_NE USA_R50_SE USA_R50_SW USA_R50_NW USA_R64_NE USA_R64_SE USA_R64_SW USA_R64_NW USA_POCI USA_ROCI USA_RMW USA_EYE TOKYO_LAT TOKYO_LON TOKYO_GRADE TOKYO_WIND TOKYO_PRES TOKYO_R50_DIR TOKYO_R50_LONG TOKYO_R50_SHORT TOKYO_R30_DIR TOKYO_R30_LONG TOKYO_R30_SHORT TOKYO_LAND CMA_LAT CMA_LON CMA_CAT CMA_WIND CMA_PRES HKO_LAT HKO_LON HKO_CAT HKO_WIND HKO_PRES NEWDELHI_LAT NEWDELHI_LON NEWDELHI_GRADE NEWDELHI_WIND NEWDELHI_PRES NEWDELHI_CI NEWDELHI_DP NEWDELHI_POCI REUNION_LAT REUNION_LON REUNION_TYPE REUNION_WIND REUNION_PRES REUNION_TNUM REUNION_CI REUNION_RMW REUNION_R34_NE REUNION_R34_SE REUNION_R34_SW REUNION_R34_NW REUNION_R50_NE REUNION_R50_SE REUNION_R50_SW REUNION_R50_NW REUNION_R64_NE REUNION_R64_SE REUNION_R64_SW REUNION_R64_NW BOM_LAT BOM_LON BOM_TYPE BOM_WIND BOM_PRES BOM_TNUM BOM_CI BOM_RMW BOM_R34_NE BOM_R34_SE BOM_R34_SW BOM_R34_NW BOM_R50_NE BOM_R50_SE BOM_R50_SW BOM_R50_NW BOM_R64_NE BOM_R64_SE BOM_R64_SW BOM_R64_NW BOM_ROCI BOM_POCI BOM_EYE BOM_POS_METHOD BOM_PRES_METHOD NADI_LAT NADI_LON NADI_CAT NADI_WIND NADI_PRES WELLINGTON_LAT WELLINGTON_LON WELLINGTON_WIND WELLINGTON_PRES DS824_LAT DS824_LON DS824_STAGE DS824_WIND DS824_PRES TD9636_LAT TD9636_LON TD9636_STAGE TD9636_WIND TD9636_PRES TD9635_LAT TD9635_LON TD9635_WIND TD9635_PRES TD9635_ROCI NEUMANN_LAT NEUMANN_LON NEUMANN_CLASS NEUMANN_WIND NEUMANN_PRES MLC_LAT MLC_LON MLC_CLASS MLC_WIND MLC_PRES USA_GUST BOM_GUST BOM_GUST_PER REUNION_GUST REUNION_GUST_PER USA_SEAHGT USA_SEARAD_NE USA_SEARAD_SE USA_SEARAD_SW USA_SEARAD_NW STORM_SPEED STORM_DIR
1942203N24146 1942 28 WP MM NOT_NAMED 1942-07-21 12:00:00 NR 23.5000 145.500 main 1382 1292 __________O___ -1 23.5000 145.500 4 18 346
1942203N24146 1942 28 WP MM NOT_NAMED 1942-07-21 15:00:00 NR 24.3536 145.274 main 1281 1201 __________P___ -1 24.3536 145.274 4 17 346
1942203N24146 1942 28 WP MM NOT_NAMED 1942-07-21 18:00:00 NR 25.1657 145.056 main 1191 1112 __________P___ -1 25.1657 145.056 4 16 346
1942203N24146 1942 28 WP MM NOT_NAMED 1942-07-21 21:00:00 NR 25.8949 144.861 main 1112 1042 __________P___ -1 25.8949 144.861 4 14 346
1942203N24146 1942 28 WP MM NOT_NAMED 1942-07-22 00:00:00 NR 26.5000 144.700 main 1042 998 __________O___ -1 26.5000 144.700 4 11 347
1942203N24146 1942 28 WP MM NOT_NAMED 1942-07-22 03:00:00 NR 26.9516 144.581 main 988 953 __________P___ -1 26.9516 144.581 4 8 346
1942203N24146 1942 28 WP MM NOT_NAMED 1942-07-22 06:00:00 NR 27.2667 144.478 main 953 929 __________P___ -1 27.2667 144.478 4 6 340
1942203N24146 1942 28 WP MM NOT_NAMED 1942-07-22 09:00:00 NR 27.4734 144.362 main 929 910 __________P___ -1 27.4734 144.362 4 4 323
1942203N24146 1942 28 WP MM NOT_NAMED 1942-07-22 12:00:00 NR 27.6000 144.200 main 910 892 __________O___ -1 27.6000 144.200 4 4 305
1942203N24146 1942 28 WP MM NOT_NAMED 1942-07-22 15:00:00 NR 27.7045 143.987 main 892 880 __________P___ -1 27.7045 143.987 4 4 288
1942203N24146 1942 28 WP MM NOT_NAMED 1942-07-22 18:00:00 NR 27.7391 143.720 main 880 868 __________P___ -1 27.7391 143.720 4 5 273
1942203N24146 1942 28 WP MM NOT_NAMED 1942-07-22 21:00:00 NR 27.7292 143.393 main 868 855 __________P___ -1 27.7292 143.393 4 6 266
1942203N24146 1942 28 WP MM NOT_NAMED 1942-07-23 00:00:00 NR 27.7000 143.000 main 855 842 __________O___ -1 27.7000 143.000 4 7 267
1942203N24146 1942 28 WP MM NOT_NAMED 1942-07-23 03:00:00 NR 27.6936 142.548 main 840 829 __________P___ -1 27.6936 142.548 4 9 268
1942203N24146 1942 28 WP MM NOT_NAMED 1942-07-23 06:00:00 NR 27.6726 142.032 main 827 814 __________P___ -1 27.6726 142.032 4 10 267
1942203N24146 1942 28 WP MM NOT_NAMED 1942-07-23 09:00:00 NR 27.6403 141.476 main 821 806 __________P___ -1 27.6403 141.476 4 10 266
1942203N24146 1942 28 WP MM NOT_NAMED 1942-07-23 12:00:00 NR 27.6000 140.900 main 806 782 __________O___ -1 27.6000 140.900 4 10 266
1942203N24146 1942 28 WP MM NOT_NAMED 1942-07-23 15:00:00 NR 27.5613 140.323 main 777 761 __________P___ -1 27.5613 140.323 4 10 265
1942203N24146 1942 28 WP MM NOT_NAMED 1942-07-23 18:00:00 NR 27.5151 139.735 main 756 734 __________P___ -1 27.5151 139.735 4 10 264
1942203N24146 1942 28 WP MM NOT_NAMED 1942-07-23 21:00:00 NR 27.4613 139.154 main 734 721 __________P___ -1 27.4613 139.154 4 10 263
1942203N24146 1942 28 WP MM NOT_NAMED 1942-07-24 00:00:00 NR 27.4000 138.600 main 721 707 __________O___ -1 27.4000 138.600 4 9 263
1942203N24146 1942 28 WP MM NOT_NAMED 1942-07-24 03:00:00 NR 27.3391 138.105 main 715 704 __________P___ -1 27.3391 138.105 4 9 261
1942203N24146 1942 28 WP MM NOT_NAMED 1942-07-24 06:00:00 NR 27.2709 137.636 main 702 699 __________P___ -1 27.2709 137.636 4 8 260
1942203N24146 1942 28 WP MM NOT_NAMED 1942-07-24 09:00:00 NR 27.1923 137.174 main 704 701 __________P___ -1 27.1923 137.174 4 8 258
1942203N24146 1942 28 WP MM NOT_NAMED 1942-07-24 12:00:00 NR 27.1000 136.700 main 702 676 __________O___ -1 27.1000 136.700 4 9 257
1942203N24146 1942 28 WP MM NOT_NAMED 1942-07-24 15:00:00 NR 26.9930 136.194 main 676 652 __________P___ -1 26.9930 136.194 4 9 256
1942203N24146 1942 28 WP MM NOT_NAMED 1942-07-24 18:00:00 NR 26.8719 135.673 main 652 632 __________P___ -1 26.8719 135.673 4 10 255
1942203N24146 1942 28 WP MM NOT_NAMED 1942-07-24 21:00:00 NR 26.7398 135.141 main 635 619 __________P___ -1 26.7398 135.141 4 10 254
1942203N24146 1942 28 WP MM NOT_NAMED 1942-07-25 00:00:00 NR 26.6000 134.600 main 619 601 __________O___ -1 26.6000 134.600 4 10 254
1942203N24146 1942 28 WP MM NOT_NAMED 1942-07-25 03:00:00 NR 26.4528 134.049 main 596 590 __________P___ -1 26.4528 134.049 4 10 253
1942203N24146 1942 28 WP MM NOT_NAMED 1942-07-25 06:00:00 NR 26.2997 133.493 main 591 580 __________P___ -1 26.2997 133.493 4 10 253
1942203N24146 1942 28 WP MM NOT_NAMED 1942-07-25 09:00:00 NR 26.1466 132.940 main 587 577 __________P___ -1 26.1466 132.940 4 10 253
1942203N24146 1942 28 WP MM NOT_NAMED 1942-07-25 12:00:00 NR 26.0000 132.400 main 582 577 __________O___ -1 26.0000 132.400 4 10 254
1942203N24146 1942 28 WP MM NOT_NAMED 1942-07-25 15:00:00 NR 25.8646 131.880 main 581 579 __________P___ -1 25.8646 131.880 4 10 254
1942203N24146 1942 28 WP MM NOT_NAMED 1942-07-25 18:00:00 NR 25.7385 131.377 main 595 592 __________P___ -1 25.7385 131.377 4 9 255
1942203N24146 1942 28 WP MM NOT_NAMED 1942-07-25 21:00:00 NR 25.6182 130.885 main 603 602 __________P___ -1 25.6182 130.885 4 9 255
1942203N24146 1942 28 WP MM NOT_NAMED 1942-07-26 00:00:00 NR 25.5000 130.400 main 614 __________O___ -1 25.5000 130.400 4 9 255

Digital Typhoon Data and Search

About IBTrACS Database

This database is a web-friendly format of International Best Track Archive for Climate Stewardship (IBTrACS), a global best track data archive curated by NOAA dating back to 1842.

Updated: 2021-11-26